sensor_id;sensor_type;location;lat;lon;timestamp;temperature;humidity
49373;DHT22;44113;38.408;-122.974;2022-10-26T00:01:13;23.80;50.00
49373;DHT22;44113;38.408;-122.974;2022-10-26T00:03:41;23.80;50.00
49373;DHT22;44113;38.408;-122.974;2022-10-26T00:06:22;23.70;50.00
49373;DHT22;44113;38.408;-122.974;2022-10-26T00:08:52;23.80;50.00
49373;DHT22;44113;38.408;-122.974;2022-10-26T00:11:21;23.70;50.00
49373;DHT22;44113;38.408;-122.974;2022-10-26T00:13:48;23.70;50.10
49373;DHT22;44113;38.408;-122.974;2022-10-26T00:16:20;23.70;50.20
49373;DHT22;44113;38.408;-122.974;2022-10-26T00:18:47;23.70;50.20
49373;DHT22;44113;38.408;-122.974;2022-10-26T00:21:14;23.70;50.40
49373;DHT22;44113;38.408;-122.974;2022-10-26T00:23:41;23.70;50.40
49373;DHT22;44113;38.408;-122.974;2022-10-26T00:26:08;23.60;50.40
49373;DHT22;44113;38.408;-122.974;2022-10-26T00:28:36;23.70;50.40
49373;DHT22;44113;38.408;-122.974;2022-10-26T00:31:07;23.70;50.40
49373;DHT22;44113;38.408;-122.974;2022-10-26T00:33:34;23.70;50.50
49373;DHT22;44113;38.408;-122.974;2022-10-26T00:36:01;23.70;50.40
49373;DHT22;44113;38.408;-122.974;2022-10-26T00:38:29;23.70;50.40
49373;DHT22;44113;38.408;-122.974;2022-10-26T00:40:56;23.70;50.30
49373;DHT22;44113;38.408;-122.974;2022-10-26T00:45:50;23.70;50.20
49373;DHT22;44113;38.408;-122.974;2022-10-26T00:48:25;23.70;50.20
49373;DHT22;44113;38.408;-122.974;2022-10-26T00:50:53;23.70;50.20
49373;DHT22;44113;38.408;-122.974;2022-10-26T00:53:21;23.70;50.10
49373;DHT22;44113;38.408;-122.974;2022-10-26T00:55:49;23.70;50.20
49373;DHT22;44113;38.408;-122.974;2022-10-26T00:58:16;23.60;50.20
49373;DHT22;44113;38.408;-122.974;2022-10-26T01:00:43;23.60;50.40
49373;DHT22;44113;38.408;-122.974;2022-10-26T01:03:10;23.70;50.60
49373;DHT22;44113;38.408;-122.974;2022-10-26T01:05:39;23.70;50.60
49373;DHT22;44113;38.408;-122.974;2022-10-26T01:08:08;23.60;50.40
49373;DHT22;44113;38.408;-122.974;2022-10-26T01:10:37;23.70;50.60
49373;DHT22;44113;38.408;-122.974;2022-10-26T01:13:04;23.70;50.60
49373;DHT22;44113;38.408;-122.974;2022-10-26T01:18:50;23.60;50.60
49373;DHT22;44113;38.408;-122.974;2022-10-26T01:27:45;23.40;50.90
49373;DHT22;44113;38.408;-122.974;2022-10-26T01:35:14;23.30;51.00
49373;DHT22;44113;38.408;-122.974;2022-10-26T01:37:48;23.20;51.00
49373;DHT22;44113;38.408;-122.974;2022-10-26T01:41:04;23.20;51.10
49373;DHT22;44113;38.408;-122.974;2022-10-26T01:43:12;23.20;51.30
49373;DHT22;44113;38.408;-122.974;2022-10-26T01:45:44;23.20;51.70
49373;DHT22;44113;38.408;-122.974;2022-10-26T01:48:15;23.20;51.40
49373;DHT22;44113;38.408;-122.974;2022-10-26T01:50:45;23.20;51.40
49373;DHT22;44113;38.408;-122.974;2022-10-26T01:53:14;23.10;51.50
49373;DHT22;44113;38.408;-122.974;2022-10-26T01:55:51;23.10;51.50
49373;DHT22;44113;38.408;-122.974;2022-10-26T01:58:30;23.10;51.70
49373;DHT22;44113;38.408;-122.974;2022-10-26T02:06:31;23.00;52.20
49373;DHT22;44113;38.408;-122.974;2022-10-26T02:09:22;23.00;51.20
49373;DHT22;44113;38.408;-122.974;2022-10-26T02:11:53;23.00;50.60
49373;DHT22;44113;38.408;-122.974;2022-10-26T02:14:46;23.00;50.10
49373;DHT22;44113;38.408;-122.974;2022-10-26T02:17:22;23.00;50.30
49373;DHT22;44113;38.408;-122.974;2022-10-26T02:19:57;23.10;49.80
49373;DHT22;44113;38.408;-122.974;2022-10-26T02:22:51;23.00;49.70
49373;DHT22;44113;38.408;-122.974;2022-10-26T02:25:31;23.00;49.50
49373;DHT22;44113;38.408;-122.974;2022-10-26T02:28:05;23.00;49.30
49373;DHT22;44113;38.408;-122.974;2022-10-26T02:30:33;23.00;49.60
49373;DHT22;44113;38.408;-122.974;2022-10-26T02:33:01;23.00;50.30
49373;DHT22;44113;38.408;-122.974;2022-10-26T02:35:31;23.40;49.80
49373;DHT22;44113;38.408;-122.974;2022-10-26T02:38:01;24.00;48.90
49373;DHT22;44113;38.408;-122.974;2022-10-26T02:40:31;24.50;47.80
49373;DHT22;44113;38.408;-122.974;2022-10-26T02:43:03;25.00;46.80
49373;DHT22;44113;38.408;-122.974;2022-10-26T02:45:36;25.40;46.10
49373;DHT22;44113;38.408;-122.974;2022-10-26T02:48:03;25.80;45.60
49373;DHT22;44113;38.408;-122.974;2022-10-26T02:50:58;26.10;45.70
49373;DHT22;44113;38.408;-122.974;2022-10-26T02:56:29;26.50;44.50
49373;DHT22;44113;38.408;-122.974;2022-10-26T02:58:59;26.60;44.30
49373;DHT22;44113;38.408;-122.974;2022-10-26T03:01:28;26.70;44.20
49373;DHT22;44113;38.408;-122.974;2022-10-26T03:03:57;26.70;44.20
49373;DHT22;44113;38.408;-122.974;2022-10-26T03:06:25;26.80;44.20
49373;DHT22;44113;38.408;-122.974;2022-10-26T03:08:52;26.80;44.00
49373;DHT22;44113;38.408;-122.974;2022-10-26T03:11:18;26.80;44.00
49373;DHT22;44113;38.408;-122.974;2022-10-26T03:13:45;26.80;44.10
49373;DHT22;44113;38.408;-122.974;2022-10-26T03:16:12;26.80;44.00
49373;DHT22;44113;38.408;-122.974;2022-10-26T03:18:39;26.70;44.00
49373;DHT22;44113;38.408;-122.974;2022-10-26T03:21:06;26.70;44.20
49373;DHT22;44113;38.408;-122.974;2022-10-26T03:23:33;26.70;44.20
49373;DHT22;44113;38.408;-122.974;2022-10-26T03:26:00;26.70;44.20
49373;DHT22;44113;38.408;-122.974;2022-10-26T03:28:26;26.70;44.20
49373;DHT22;44113;38.408;-122.974;2022-10-26T03:30:54;26.70;44.10
49373;DHT22;44113;38.408;-122.974;2022-10-26T03:33:20;26.70;44.20
49373;DHT22;44113;38.408;-122.974;2022-10-26T03:35:54;26.60;44.20
49373;DHT22;44113;38.408;-122.974;2022-10-26T03:38:21;26.70;44.10
49373;DHT22;44113;38.408;-122.974;2022-10-26T03:40:48;26.70;44.00
49373;DHT22;44113;38.408;-122.974;2022-10-26T03:43:15;26.70;44.20
49373;DHT22;44113;38.408;-122.974;2022-10-26T03:45:43;26.70;44.10
49373;DHT22;44113;38.408;-122.974;2022-10-26T03:48:09;26.90;44.10
49373;DHT22;44113;38.408;-122.974;2022-10-26T03:50:36;27.00;43.80
49373;DHT22;44113;38.408;-122.974;2022-10-26T03:53:02;27.20;43.60
49373;DHT22;44113;38.408;-122.974;2022-10-26T03:55:30;27.30;43.30
49373;DHT22;44113;38.408;-122.974;2022-10-26T03:57:56;27.50;43.30
49373;DHT22;44113;38.408;-122.974;2022-10-26T04:00:23;27.60;43.10
49373;DHT22;44113;38.408;-122.974;2022-10-26T04:02:56;27.70;43.00
49373;DHT22;44113;38.408;-122.974;2022-10-26T04:05:23;27.80;43.00
49373;DHT22;44113;38.408;-122.974;2022-10-26T04:07:58;27.80;42.80
49373;DHT22;44113;38.408;-122.974;2022-10-26T04:10:26;27.90;42.60
49373;DHT22;44113;38.408;-122.974;2022-10-26T04:12:54;28.00;42.70
49373;DHT22;44113;38.408;-122.974;2022-10-26T04:15:21;28.10;42.40
49373;DHT22;44113;38.408;-122.974;2022-10-26T04:17:53;28.30;42.20
49373;DHT22;44113;38.408;-122.974;2022-10-26T04:20:20;28.60;41.80
49373;DHT22;44113;38.408;-122.974;2022-10-26T04:22:47;28.80;41.60
49373;DHT22;44113;38.408;-122.974;2022-10-26T04:25:13;29.00;41.30
49373;DHT22;44113;38.408;-122.974;2022-10-26T04:27:40;29.20;41.20
49373;DHT22;44113;38.408;-122.974;2022-10-26T04:30:07;29.20;41.10
49373;DHT22;44113;38.408;-122.974;2022-10-26T04:32:34;29.20;41.00
49373;DHT22;44113;38.408;-122.974;2022-10-26T04:35:01;29.30;41.00
49373;DHT22;44113;38.408;-122.974;2022-10-26T04:37:28;29.30;41.00
49373;DHT22;44113;38.408;-122.974;2022-10-26T04:39:54;29.30;40.90
49373;DHT22;44113;38.408;-122.974;2022-10-26T04:42:21;29.40;40.80
49373;DHT22;44113;38.408;-122.974;2022-10-26T04:44:47;29.40;40.70
49373;DHT22;44113;38.408;-122.974;2022-10-26T04:47:14;29.50;40.70
49373;DHT22;44113;38.408;-122.974;2022-10-26T04:49:41;29.50;40.60
49373;DHT22;44113;38.408;-122.974;2022-10-26T04:52:08;29.60;40.60
49373;DHT22;44113;38.408;-122.974;2022-10-26T04:54:34;29.70;40.50
49373;DHT22;44113;38.408;-122.974;2022-10-26T04:57:01;29.70;40.30
49373;DHT22;44113;38.408;-122.974;2022-10-26T04:59:28;29.80;40.40
49373;DHT22;44113;38.408;-122.974;2022-10-26T05:01:55;29.80;40.30
49373;DHT22;44113;38.408;-122.974;2022-10-26T05:04:21;29.90;40.40
49373;DHT22;44113;38.408;-122.974;2022-10-26T05:06:50;29.90;40.20
49373;DHT22;44113;38.408;-122.974;2022-10-26T05:09:17;29.90;40.30
49373;DHT22;44113;38.408;-122.974;2022-10-26T05:11:44;30.00;40.20
49373;DHT22;44113;38.408;-122.974;2022-10-26T05:14:11;29.90;40.20
49373;DHT22;44113;38.408;-122.974;2022-10-26T05:16:38;29.90;40.20
49373;DHT22;44113;38.408;-122.974;2022-10-26T05:19:04;29.90;40.20
49373;DHT22;44113;38.408;-122.974;2022-10-26T05:21:31;29.90;40.30
49373;DHT22;44113;38.408;-122.974;2022-10-26T05:23:58;29.80;40.30
49373;DHT22;44113;38.408;-122.974;2022-10-26T05:26:25;29.80;40.60
49373;DHT22;44113;38.408;-122.974;2022-10-26T05:28:51;29.60;40.40
49373;DHT22;44113;38.408;-122.974;2022-10-26T05:31:19;29.60;40.70
49373;DHT22;44113;38.408;-122.974;2022-10-26T05:33:49;29.60;40.80
49373;DHT22;44113;38.408;-122.974;2022-10-26T05:36:17;29.50;40.80
49373;DHT22;44113;38.408;-122.974;2022-10-26T05:38:44;29.40;40.90
49373;DHT22;44113;38.408;-122.974;2022-10-26T05:41:10;29.40;40.70
49373;DHT22;44113;38.408;-122.974;2022-10-26T05:43:37;29.30;40.90
49373;DHT22;44113;38.408;-122.974;2022-10-26T05:46:04;29.30;40.80
49373;DHT22;44113;38.408;-122.974;2022-10-26T05:48:30;29.30;41.00
49373;DHT22;44113;38.408;-122.974;2022-10-26T05:51:00;29.30;41.00
49373;DHT22;44113;38.408;-122.974;2022-10-26T05:53:27;29.20;41.00
49373;DHT22;44113;38.408;-122.974;2022-10-26T05:55:55;29.10;41.10
49373;DHT22;44113;38.408;-122.974;2022-10-26T05:58:22;29.10;41.00
49373;DHT22;44113;38.408;-122.974;2022-10-26T06:00:53;29.00;41.30
49373;DHT22;44113;38.408;-122.974;2022-10-26T06:06:13;28.90;41.30
49373;DHT22;44113;38.408;-122.974;2022-10-26T06:08:40;28.90;41.40
49373;DHT22;44113;38.408;-122.974;2022-10-26T06:11:08;28.90;41.50
49373;DHT22;44113;38.408;-122.974;2022-10-26T06:13:35;28.90;41.60
49373;DHT22;44113;38.408;-122.974;2022-10-26T06:24:39;28.80;41.60
49373;DHT22;44113;38.408;-122.974;2022-10-26T06:27:42;28.70;41.50
49373;DHT22;44113;38.408;-122.974;2022-10-26T06:30:11;28.60;41.70
49373;DHT22;44113;38.408;-122.974;2022-10-26T06:32:42;28.60;41.80
49373;DHT22;44113;38.408;-122.974;2022-10-26T06:37:45;28.50;41.90
49373;DHT22;44113;38.408;-122.974;2022-10-26T06:40:14;28.40;41.80
49373;DHT22;44113;38.408;-122.974;2022-10-26T06:42:43;28.40;42.10
49373;DHT22;44113;38.408;-122.974;2022-10-26T06:45:15;28.40;42.00
49373;DHT22;44113;38.408;-122.974;2022-10-26T06:50:35;28.30;42.00
49373;DHT22;44113;38.408;-122.974;2022-10-26T06:53:29;28.20;42.00
49373;DHT22;44113;38.408;-122.974;2022-10-26T06:55:58;28.20;42.10
49373;DHT22;44113;38.408;-122.974;2022-10-26T06:58:33;28.20;42.10
49373;DHT22;44113;38.408;-122.974;2022-10-26T07:01:01;28.10;42.20
49373;DHT22;44113;38.408;-122.974;2022-10-26T07:03:28;28.10;42.30
49373;DHT22;44113;38.408;-122.974;2022-10-26T07:05:54;28.00;42.20
49373;DHT22;44113;38.408;-122.974;2022-10-26T07:08:22;27.90;42.20
49373;DHT22;44113;38.408;-122.974;2022-10-26T07:10:49;27.90;42.40
49373;DHT22;44113;38.408;-122.974;2022-10-26T07:13:15;27.80;42.50
49373;DHT22;44113;38.408;-122.974;2022-10-26T07:15:42;27.80;42.60
49373;DHT22;44113;38.408;-122.974;2022-10-26T07:18:09;27.70;42.60
49373;DHT22;44113;38.408;-122.974;2022-10-26T07:20:38;27.70;42.60
49373;DHT22;44113;38.408;-122.974;2022-10-26T07:23:05;27.70;42.70
49373;DHT22;44113;38.408;-122.974;2022-10-26T07:25:36;27.60;42.60
49373;DHT22;44113;38.408;-122.974;2022-10-26T07:28:09;27.60;42.70
49373;DHT22;44113;38.408;-122.974;2022-10-26T07:30:37;27.50;42.60
49373;DHT22;44113;38.408;-122.974;2022-10-26T07:33:11;27.50;42.70
49373;DHT22;44113;38.408;-122.974;2022-10-26T07:35:38;27.40;42.70
49373;DHT22;44113;38.408;-122.974;2022-10-26T07:38:06;27.40;42.70
49373;DHT22;44113;38.408;-122.974;2022-10-26T07:40:32;27.30;42.50
49373;DHT22;44113;38.408;-122.974;2022-10-26T07:43:00;27.30;42.70
49373;DHT22;44113;38.408;-122.974;2022-10-26T07:45:27;27.20;42.80
49373;DHT22;44113;38.408;-122.974;2022-10-26T07:47:55;27.20;43.00
49373;DHT22;44113;38.408;-122.974;2022-10-26T07:50:22;27.20;43.00
49373;DHT22;44113;38.408;-122.974;2022-10-26T07:52:49;27.10;43.10
49373;DHT22;44113;38.408;-122.974;2022-10-26T07:55:15;27.10;43.20
49373;DHT22;44113;38.408;-122.974;2022-10-26T07:57:42;27.00;43.20
49373;DHT22;44113;38.408;-122.974;2022-10-26T08:00:09;27.00;43.20
49373;DHT22;44113;38.408;-122.974;2022-10-26T08:02:36;26.90;43.30
49373;DHT22;44113;38.408;-122.974;2022-10-26T08:05:03;26.80;43.20
49373;DHT22;44113;38.408;-122.974;2022-10-26T08:07:31;26.80;43.10
49373;DHT22;44113;38.408;-122.974;2022-10-26T08:09:57;26.70;43.10
49373;DHT22;44113;38.408;-122.974;2022-10-26T08:12:24;26.70;43.10
49373;DHT22;44113;38.408;-122.974;2022-10-26T08:14:50;26.60;43.10
49373;DHT22;44113;38.408;-122.974;2022-10-26T08:17:17;26.50;43.10
49373;DHT22;44113;38.408;-122.974;2022-10-26T08:19:47;26.50;43.10
49373;DHT22;44113;38.408;-122.974;2022-10-26T08:22:14;26.40;43.10
49373;DHT22;44113;38.408;-122.974;2022-10-26T08:24:41;26.40;43.20
49373;DHT22;44113;38.408;-122.974;2022-10-26T08:27:13;26.30;43.40
49373;DHT22;44113;38.408;-122.974;2022-10-26T08:29:40;26.30;43.50
49373;DHT22;44113;38.408;-122.974;2022-10-26T08:32:08;26.20;43.50
49373;DHT22;44113;38.408;-122.974;2022-10-26T08:34:35;26.20;43.60
49373;DHT22;44113;38.408;-122.974;2022-10-26T08:37:02;26.10;43.60
49373;DHT22;44113;38.408;-122.974;2022-10-26T08:39:28;26.10;43.60
49373;DHT22;44113;38.408;-122.974;2022-10-26T08:42:03;26.00;43.60
49373;DHT22;44113;38.408;-122.974;2022-10-26T08:44:43;26.00;43.70
49373;DHT22;44113;38.408;-122.974;2022-10-26T08:47:36;25.90;43.70
49373;DHT22;44113;38.408;-122.974;2022-10-26T08:50:26;25.90;43.70
49373;DHT22;44113;38.408;-122.974;2022-10-26T08:58:51;25.70;43.80
49373;DHT22;44113;38.408;-122.974;2022-10-26T09:01:18;25.60;44.00
49373;DHT22;44113;38.408;-122.974;2022-10-26T09:03:45;25.50;44.00
49373;DHT22;44113;38.408;-122.974;2022-10-26T09:17:41;25.30;44.20
49373;DHT22;44113;38.408;-122.974;2022-10-26T09:25:22;25.10;44.20
49373;DHT22;44113;38.408;-122.974;2022-10-26T09:27:55;25.10;44.30
49373;DHT22;44113;38.408;-122.974;2022-10-26T09:30:23;25.00;44.30
49373;DHT22;44113;38.408;-122.974;2022-10-26T09:33:15;25.00;44.40
49373;DHT22;44113;38.408;-122.974;2022-10-26T09:38:32;24.90;44.70
49373;DHT22;44113;38.408;-122.974;2022-10-26T09:43:49;24.80;44.90
49373;DHT22;44113;38.408;-122.974;2022-10-26T09:49:43;24.70;44.80
49373;DHT22;44113;38.408;-122.974;2022-10-26T09:52:14;24.60;44.70
49373;DHT22;44113;38.408;-122.974;2022-10-26T09:54:41;24.60;44.70
49373;DHT22;44113;38.408;-122.974;2022-10-26T09:57:08;24.50;44.80
49373;DHT22;44113;38.408;-122.974;2022-10-26T09:59:39;24.50;44.80
49373;DHT22;44113;38.408;-122.974;2022-10-26T10:02:44;24.50;45.00
49373;DHT22;44113;38.408;-122.974;2022-10-26T10:07:47;24.40;45.20
49373;DHT22;44113;38.408;-122.974;2022-10-26T10:10:19;24.30;45.40
49373;DHT22;44113;38.408;-122.974;2022-10-26T10:12:47;24.30;45.50
49373;DHT22;44113;38.408;-122.974;2022-10-26T10:15:24;24.20;45.70
49373;DHT22;44113;38.408;-122.974;2022-10-26T10:17:50;24.20;45.80
49373;DHT22;44113;38.408;-122.974;2022-10-26T10:20:28;24.10;45.80
49373;DHT22;44113;38.408;-122.974;2022-10-26T10:23:00;24.10;45.70
49373;DHT22;44113;38.408;-122.974;2022-10-26T10:25:37;24.10;45.60
49373;DHT22;44113;38.408;-122.974;2022-10-26T10:28:25;24.10;45.70
49373;DHT22;44113;38.408;-122.974;2022-10-26T10:30:53;24.00;45.60
49373;DHT22;44113;38.408;-122.974;2022-10-26T10:33:22;24.00;45.70
49373;DHT22;44113;38.408;-122.974;2022-10-26T10:35:59;24.00;45.70
49373;DHT22;44113;38.408;-122.974;2022-10-26T10:38:26;24.00;45.80
49373;DHT22;44113;38.408;-122.974;2022-10-26T10:40:58;23.90;45.80
49373;DHT22;44113;38.408;-122.974;2022-10-26T10:43:27;23.80;45.90
49373;DHT22;44113;38.408;-122.974;2022-10-26T10:45:56;23.80;45.90
49373;DHT22;44113;38.408;-122.974;2022-10-26T10:48:26;23.80;46.00
49373;DHT22;44113;38.408;-122.974;2022-10-26T10:51:06;23.80;46.30
49373;DHT22;44113;38.408;-122.974;2022-10-26T10:53:44;23.80;46.00
49373;DHT22;44113;38.408;-122.974;2022-10-26T10:56:13;23.70;45.90
49373;DHT22;44113;38.408;-122.974;2022-10-26T10:58:50;23.70;45.80
49373;DHT22;44113;38.408;-122.974;2022-10-26T11:01:26;23.70;45.90
49373;DHT22;44113;38.408;-122.974;2022-10-26T11:06:51;23.60;45.90
49373;DHT22;44113;38.408;-122.974;2022-10-26T11:09:25;23.60;46.00
49373;DHT22;44113;38.408;-122.974;2022-10-26T11:11:56;23.50;46.10
49373;DHT22;44113;38.408;-122.974;2022-10-26T11:17:13;23.40;46.20
49373;DHT22;44113;38.408;-122.974;2022-10-26T11:19:47;23.40;46.20
49373;DHT22;44113;38.408;-122.974;2022-10-26T11:22:18;23.40;46.30
49373;DHT22;44113;38.408;-122.974;2022-10-26T11:24:57;23.30;46.20
49373;DHT22;44113;38.408;-122.974;2022-10-26T11:27:50;23.30;46.30
49373;DHT22;44113;38.408;-122.974;2022-10-26T11:30:20;23.30;46.20
49373;DHT22;44113;38.408;-122.974;2022-10-26T11:32:56;23.30;46.30
49373;DHT22;44113;38.408;-122.974;2022-10-26T11:35:45;23.20;46.30
49373;DHT22;44113;38.408;-122.974;2022-10-26T11:38:32;23.20;46.30
49373;DHT22;44113;38.408;-122.974;2022-10-26T11:46:29;23.10;46.30
49373;DHT22;44113;38.408;-122.974;2022-10-26T11:52:32;23.00;46.30
49373;DHT22;44113;38.408;-122.974;2022-10-26T11:54:41;23.00;46.40
49373;DHT22;44113;38.408;-122.974;2022-10-26T11:57:11;23.00;46.40
49373;DHT22;44113;38.408;-122.974;2022-10-26T11:59:48;22.90;46.30
49373;DHT22;44113;38.408;-122.974;2022-10-26T12:02:25;22.90;46.30
49373;DHT22;44113;38.408;-122.974;2022-10-26T12:05:07;22.90;46.30
49373;DHT22;44113;38.408;-122.974;2022-10-26T12:07:56;22.80;46.30
49373;DHT22;44113;38.408;-122.974;2022-10-26T12:10:27;22.80;46.40
49373;DHT22;44113;38.408;-122.974;2022-10-26T12:16:16;22.70;46.30
49373;DHT22;44113;38.408;-122.974;2022-10-26T12:18:59;22.70;46.30
49373;DHT22;44113;38.408;-122.974;2022-10-26T12:21:29;22.70;46.40
49373;DHT22;44113;38.408;-122.974;2022-10-26T12:23:58;22.70;46.40
49373;DHT22;44113;38.408;-122.974;2022-10-26T12:39:30;22.50;46.40
49373;DHT22;44113;38.408;-122.974;2022-10-26T12:52:39;22.40;46.60
49373;DHT22;44113;38.408;-122.974;2022-10-26T13:00:17;22.30;46.80
49373;DHT22;44113;38.408;-122.974;2022-10-26T13:06:13;22.30;46.80
49373;DHT22;44113;38.408;-122.974;2022-10-26T13:08:51;22.20;46.80
49373;DHT22;44113;38.408;-122.974;2022-10-26T13:11:30;22.20;46.90
49373;DHT22;44113;38.408;-122.974;2022-10-26T13:14:04;22.20;46.90
49373;DHT22;44113;38.408;-122.974;2022-10-26T13:16:32;22.10;46.90
49373;DHT22;44113;38.408;-122.974;2022-10-26T13:18:59;22.10;47.60
49373;DHT22;44113;38.408;-122.974;2022-10-26T13:21:27;22.00;46.90
49373;DHT22;44113;38.408;-122.974;2022-10-26T13:23:58;22.00;46.80
49373;DHT22;44113;38.408;-122.974;2022-10-26T13:26:32;22.00;46.90
49373;DHT22;44113;38.408;-122.974;2022-10-26T13:29:28;22.00;46.90
49373;DHT22;44113;38.408;-122.974;2022-10-26T13:31:56;22.00;47.00
49373;DHT22;44113;38.408;-122.974;2022-10-26T13:34:27;21.90;47.00
49373;DHT22;44113;38.408;-122.974;2022-10-26T13:40:04;21.80;47.10
49373;DHT22;44113;38.408;-122.974;2022-10-26T13:42:46;21.90;47.10
49373;DHT22;44113;38.408;-122.974;2022-10-26T13:45:28;21.90;47.20
49373;DHT22;44113;38.408;-122.974;2022-10-26T13:48:05;21.80;47.10
49373;DHT22;44113;38.408;-122.974;2022-10-26T13:51:02;21.90;47.10
49373;DHT22;44113;38.408;-122.974;2022-10-26T13:57:57;21.80;47.10
49373;DHT22;44113;38.408;-122.974;2022-10-26T13:59:53;21.80;47.10
49373;DHT22;44113;38.408;-122.974;2022-10-26T14:02:25;21.70;47.20
49373;DHT22;44113;38.408;-122.974;2022-10-26T14:05:03;21.70;47.40
49373;DHT22;44113;38.408;-122.974;2022-10-26T14:07:48;21.70;47.40
49373;DHT22;44113;38.408;-122.974;2022-10-26T14:10:33;21.70;47.30
49373;DHT22;44113;38.408;-122.974;2022-10-26T14:13:07;21.70;47.40
49373;DHT22;44113;38.408;-122.974;2022-10-26T14:15:34;21.60;47.50
49373;DHT22;44113;38.408;-122.974;2022-10-26T14:18:02;21.60;47.50
49373;DHT22;44113;38.408;-122.974;2022-10-26T14:20:30;21.60;47.50
49373;DHT22;44113;38.408;-122.974;2022-10-26T14:22:57;21.60;47.40
49373;DHT22;44113;38.408;-122.974;2022-10-26T14:25:26;21.60;47.40
49373;DHT22;44113;38.408;-122.974;2022-10-26T14:27:53;21.60;47.40
49373;DHT22;44113;38.408;-122.974;2022-10-26T14:30:32;21.60;47.40
49373;DHT22;44113;38.408;-122.974;2022-10-26T14:32:58;21.50;47.40
49373;DHT22;44113;38.408;-122.974;2022-10-26T14:35:28;21.50;48.10
49373;DHT22;44113;38.408;-122.974;2022-10-26T14:37:59;21.50;47.50
49373;DHT22;44113;38.408;-122.974;2022-10-26T14:40:29;21.50;47.50
49373;DHT22;44113;38.408;-122.974;2022-10-26T14:42:59;21.50;47.50
49373;DHT22;44113;38.408;-122.974;2022-10-26T14:45:33;21.40;47.60
49373;DHT22;44113;38.408;-122.974;2022-10-26T14:48:03;21.40;47.80
49373;DHT22;44113;38.408;-122.974;2022-10-26T14:50:30;21.30;47.70
49373;DHT22;44113;38.408;-122.974;2022-10-26T14:55:27;21.30;47.80
49373;DHT22;44113;38.408;-122.974;2022-10-26T14:58:06;21.30;47.70
49373;DHT22;44113;38.408;-122.974;2022-10-26T15:00:33;21.40;47.70
49373;DHT22;44113;38.408;-122.974;2022-10-26T15:03:00;21.30;47.70
49373;DHT22;44113;38.408;-122.974;2022-10-26T15:05:28;21.40;47.70
49373;DHT22;44113;38.408;-122.974;2022-10-26T15:07:57;21.30;47.70
49373;DHT22;44113;38.408;-122.974;2022-10-26T15:13:09;21.30;48.00
49373;DHT22;44113;38.408;-122.974;2022-10-26T15:15:37;21.20;48.10
49373;DHT22;44113;38.408;-122.974;2022-10-26T15:18:04;21.10;48.10
49373;DHT22;44113;38.408;-122.974;2022-10-26T15:20:30;21.10;48.10
49373;DHT22;44113;38.408;-122.974;2022-10-26T15:22:59;21.10;48.20
49373;DHT22;44113;38.408;-122.974;2022-10-26T15:25:31;21.10;48.10
49373;DHT22;44113;38.408;-122.974;2022-10-26T15:28:30;21.10;48.10
49373;DHT22;44113;38.408;-122.974;2022-10-26T15:30:59;21.10;48.20
49373;DHT22;44113;38.408;-122.974;2022-10-26T15:33:25;21.10;48.20
49373;DHT22;44113;38.408;-122.974;2022-10-26T15:36:33;21.10;48.20
49373;DHT22;44113;38.408;-122.974;2022-10-26T15:39:00;21.10;48.20
49373;DHT22;44113;38.408;-122.974;2022-10-26T15:43:55;21.10;48.30
49373;DHT22;44113;38.408;-122.974;2022-10-26T15:46:34;21.00;48.30
49373;DHT22;44113;38.408;-122.974;2022-10-26T15:49:03;20.90;48.70
49373;DHT22;44113;38.408;-122.974;2022-10-26T15:51:30;20.90;48.40
49373;DHT22;44113;38.408;-122.974;2022-10-26T15:54:02;20.90;48.30
49373;DHT22;44113;38.408;-122.974;2022-10-26T15:56:29;20.90;48.40
49373;DHT22;44113;38.408;-122.974;2022-10-26T15:58:57;20.90;48.30
49373;DHT22;44113;38.408;-122.974;2022-10-26T16:01:26;20.90;48.30
49373;DHT22;44113;38.408;-122.974;2022-10-26T16:03:53;20.90;48.80
49373;DHT22;44113;38.408;-122.974;2022-10-26T16:08:52;20.90;48.20
49373;DHT22;44113;38.408;-122.974;2022-10-26T16:11:20;20.90;48.40
49373;DHT22;44113;38.408;-122.974;2022-10-26T16:13:47;20.80;48.30
49373;DHT22;44113;38.408;-122.974;2022-10-26T16:16:15;20.90;48.40
49373;DHT22;44113;38.408;-122.974;2022-10-26T16:18:42;20.80;48.50
49373;DHT22;44113;38.408;-122.974;2022-10-26T16:21:14;20.80;48.60
49373;DHT22;44113;38.408;-122.974;2022-10-26T16:23:44;20.80;48.60
49373;DHT22;44113;38.408;-122.974;2022-10-26T16:26:11;20.70;48.60
49373;DHT22;44113;38.408;-122.974;2022-10-26T16:28:37;20.70;48.70
49373;DHT22;44113;38.408;-122.974;2022-10-26T16:31:07;20.70;48.50
49373;DHT22;44113;38.408;-122.974;2022-10-26T16:33:33;20.80;48.60
49373;DHT22;44113;38.408;-122.974;2022-10-26T16:36:01;20.70;48.80
49373;DHT22;44113;38.408;-122.974;2022-10-26T16:38:30;20.70;50.10
49373;DHT22;44113;38.408;-122.974;2022-10-26T16:41:06;20.70;50.60
49373;DHT22;44113;38.408;-122.974;2022-10-26T16:43:35;20.70;50.50
49373;DHT22;44113;38.408;-122.974;2022-10-26T16:46:13;20.70;51.60
49373;DHT22;44113;38.408;-122.974;2022-10-26T16:48:43;20.60;51.30
49373;DHT22;44113;38.408;-122.974;2022-10-26T16:51:15;20.60;51.30
49373;DHT22;44113;38.408;-122.974;2022-10-26T16:53:42;20.60;51.10
49373;DHT22;44113;38.408;-122.974;2022-10-26T16:56:11;20.60;50.90
49373;DHT22;44113;38.408;-122.974;2022-10-26T16:58:39;20.60;50.90
49373;DHT22;44113;38.408;-122.974;2022-10-26T17:01:07;20.60;50.80
49373;DHT22;44113;38.408;-122.974;2022-10-26T17:03:35;20.60;51.60
49373;DHT22;44113;38.408;-122.974;2022-10-26T17:06:04;20.60;51.60
49373;DHT22;44113;38.408;-122.974;2022-10-26T17:08:33;20.60;51.80
49373;DHT22;44113;38.408;-122.974;2022-10-26T17:11:14;20.60;52.10
49373;DHT22;44113;38.408;-122.974;2022-10-26T17:13:41;20.50;52.20
49373;DHT22;44113;38.408;-122.974;2022-10-26T17:16:17;20.50;52.70
49373;DHT22;44113;38.408;-122.974;2022-10-26T17:18:45;20.50;52.70
49373;DHT22;44113;38.408;-122.974;2022-10-26T17:21:14;20.50;57.50
49373;DHT22;44113;38.408;-122.974;2022-10-26T17:23:41;20.60;61.00
49373;DHT22;44113;38.408;-122.974;2022-10-26T17:26:10;20.60;59.70
49373;DHT22;44113;38.408;-122.974;2022-10-26T17:28:37;20.70;58.90
49373;DHT22;44113;38.408;-122.974;2022-10-26T17:31:09;20.70;57.90
49373;DHT22;44113;38.408;-122.974;2022-10-26T17:33:37;20.70;57.40